Time;durP1;ratioP1;P1;durP2;ratioP2;P2;SDS_P1;SDS_P2;PMS_P1;PMS_P2;Temp;Humidity;BMP_temperature;BMP_pressure;BME280_temperature;BME280_humidity;BME280_pressure;Samples;Min_cycle;Max_cycle;Signal;HPM_P1;HPM_P2
2021/12/10 00:01:18;;;;;;;11.63;5.73;;;0.60;99.90;;;;;;5029729;28;20202;-69
2021/12/10 00:03:48;;;;;;;13.37;6.47;;;0.70;99.90;;;;;;5029688;28;20190;-70
2021/12/10 00:06:19;;;;;;;12.00;5.67;;;0.70;99.90;;;;;;5028714;28;20285;-70
2021/12/10 00:08:52;;;;;;;12.23;6.37;;;0.70;99.90;;;;;;5029274;28;20245;-70
2021/12/10 00:11:24;;;;;;;9.43;4.97;;;0.70;99.90;;;;;;5030098;28;20229;-69
2021/12/10 00:13:58;;;;;;;11.37;5.57;;;0.80;99.90;;;;;;5032458;28;20222;-69
2021/12/10 00:16:25;;;;;;;10.33;5.47;;;0.60;99.90;;;;;;5018872;28;20565;-69
2021/12/10 00:18:57;;;;;;;9.33;4.57;;;0.60;99.90;;;;;;5029154;28;20294;-69
2021/12/10 00:21:29;;;;;;;11.63;5.80;;;0.60;99.90;;;;;;5029995;28;20194;-69
2021/12/10 00:24:02;;;;;;;9.57;5.33;;;0.60;99.90;;;;;;5022288;28;20274;-68
2021/12/10 00:26:29;;;;;;;16.77;8.77;;;0.60;99.90;;;;;;5026112;28;20205;-69
2021/12/10 00:29:02;;;;;;;19.03;8.87;;;0.60;99.90;;;;;;5029309;28;20202;-68
2021/12/10 00:31:43;;;;;;;15.83;7.60;;;0.60;99.90;;;;;;5031989;28;20326;-69
2021/12/10 00:34:15;;;;;;;16.87;7.37;;;0.60;99.90;;;;;;5050773;28;20205;-69
2021/12/10 00:36:43;;;;;;;16.20;8.10;;;0.50;99.90;;;;;;5050675;28;20566;-69
2021/12/10 00:39:17;;;;;;;16.17;7.50;;;0.50;99.90;;;;;;5058794;28;20204;-69
2021/12/10 00:41:44;;;;;;;15.33;7.37;;;0.50;99.90;;;;;;5039308;28;20676;-69
2021/12/10 00:44:11;;;;;;;12.93;6.50;;;0.40;99.90;;;;;;5055605;28;20204;-70
2021/12/10 00:46:39;;;;;;;13.63;6.17;;;0.50;99.90;;;;;;5055721;28;20592;-69
2021/12/10 00:49:08;;;;;;;11.83;5.80;;;0.50;99.90;;;;;;5061323;28;20677;-69
2021/12/10 00:51:36;;;;;;;13.83;6.90;;;0.50;99.90;;;;;;5055740;28;20201;-68
2021/12/10 00:54:05;;;;;;;11.30;6.20;;;0.50;99.90;;;;;;5055925;28;20220;-68
2021/12/10 00:56:33;;;;;;;14.63;6.53;;;0.50;99.90;;;;;;5052989;28;20201;-68
2021/12/10 00:59:01;;;;;;;14.23;7.00;;;0.60;99.90;;;;;;5060113;28;20586;-69
2021/12/10 01:01:32;;;;;;;15.37;7.30;;;0.60;99.90;;;;;;5052710;28;20701;-68
2021/12/10 01:04:03;;;;;;;9.77;5.87;;;0.50;99.90;;;;;;5047800;28;20201;-68
2021/12/10 01:06:30;;;;;;;10.77;5.50;;;0.60;99.90;;;;;;5055254;28;20715;-68
2021/12/10 01:09:00;;;;;;;12.43;6.47;;;0.60;99.90;;;;;;5039994;28;20211;-69
2021/12/10 01:11:31;;;;;;;21.37;9.50;;;0.60;99.90;;;;;;5069142;28;20266;-68
2021/12/10 01:14:12;;;;;;;20.67;9.90;;;0.60;99.90;;;;;;5050826;28;20206;-68
2021/12/10 01:25:11;;;;;;;16.53;7.10;;;0.60;99.90;;;;;;5053714;28;20240;-69
2021/12/10 01:27:40;;;;;;;14.60;6.93;;;0.70;99.90;;;;;;5058350;28;20197;-68
2021/12/10 01:30:14;;;;;;;13.17;6.30;;;0.70;99.90;;;;;;5060881;28;20190;-68
2021/12/10 01:32:44;;;;;;;11.40;6.23;;;0.70;99.90;;;;;;5053564;28;20214;-68
2021/12/10 01:35:14;;;;;;;13.30;6.40;;;0.70;99.90;;;;;;5052884;28;20313;-68
2021/12/10 01:37:42;;;;;;;10.90;5.47;;;0.70;99.90;;;;;;5052738;28;20204;-69
2021/12/10 01:40:10;;;;;;;9.93;5.20;;;0.70;99.90;;;;;;5064014;28;20322;-68
2021/12/10 01:42:43;;;;;;;9.30;4.93;;;0.70;99.90;;;;;;5055516;28;20324;-68
2021/12/10 01:45:20;;;;;;;11.43;5.30;;;0.70;99.90;;;;;;5061163;28;20282;-69
2021/12/10 01:47:51;;;;;;;6.07;4.17;;;0.70;99.90;;;;;;5056639;28;20209;-68
2021/12/10 01:50:19;;;;;;;8.37;4.60;;;0.70;99.90;;;;;;5062059;28;20192;-68
2021/12/10 01:52:51;;;;;;;9.10;5.03;;;0.70;99.90;;;;;;5057325;28;20209;-68
2021/12/10 01:55:22;;;;;;;10.17;5.10;;;0.80;99.90;;;;;;5045009;28;20305;-68
2021/12/10 01:57:50;;;;;;;10.33;5.03;;;0.70;99.90;;;;;;5064601;28;20223;-68
2021/12/10 02:00:22;;;;;;;12.57;5.90;;;0.70;99.90;;;;;;5067298;28;20193;-69
2021/12/10 02:02:49;;;;;;;16.40;6.90;;;0.70;99.90;;;;;;5061629;28;20210;-69
2021/12/10 02:05:17;;;;;;;10.53;5.57;;;0.70;99.90;;;;;;5055436;28;20277;-69
2021/12/10 02:07:45;;;;;;;11.23;5.70;;;0.70;99.90;;;;;;5064845;28;20284;-68
2021/12/10 02:10:15;;;;;;;14.80;5.63;;;0.70;99.90;;;;;;5068221;28;20197;-69
2021/12/10 02:12:42;;;;;;;10.20;5.20;;;0.70;99.90;;;;;;5071763;28;20299;-68
2021/12/10 02:15:12;;;;;;;14.83;6.57;;;0.70;99.90;;;;;;5057073;28;20691;-69
2021/12/10 02:17:47;;;;;;;15.77;6.87;;;0.70;99.90;;;;;;5072063;28;20711;-69
2021/12/10 02:20:18;;;;;;;12.17;6.20;;;0.70;99.90;;;;;;5070358;28;20197;-69
2021/12/10 02:22:48;;;;;;;12.73;6.50;;;0.70;99.90;;;;;;5059625;28;20200;-69
2021/12/10 02:25:18;;;;;;;12.53;6.00;;;0.60;99.90;;;;;;5054704;28;20590;-68
2021/12/10 02:27:45;;;;;;;12.57;5.70;;;0.60;99.90;;;;;;5044356;28;20570;-69
2021/12/10 02:30:14;;;;;;;8.37;4.83;;;0.70;99.90;;;;;;5060829;28;20311;-69
2021/12/10 02:32:41;;;;;;;8.27;4.63;;;0.70;99.90;;;;;;5069706;28;20189;-69
2021/12/10 02:35:11;;;;;;;8.20;4.93;;;0.70;99.90;;;;;;5062610;28;20193;-69
2021/12/10 02:37:38;;;;;;;7.30;4.40;;;0.70;99.90;;;;;;5061370;28;20280;-69
2021/12/10 02:40:09;;;;;;;12.47;5.73;;;0.80;99.90;;;;;;5059691;28;20215;-68
2021/12/10 02:42:37;;;;;;;11.77;5.60;;;0.80;99.90;;;;;;5067322;28;20195;-68
2021/12/10 02:45:05;;;;;;;9.07;4.30;;;0.80;99.90;;;;;;5070624;28;20197;-68
2021/12/10 02:47:32;;;;;;;11.87;5.67;;;0.80;99.90;;;;;;5070879;28;20194;-69
2021/12/10 02:49:59;;;;;;;10.03;5.00;;;0.80;99.90;;;;;;5057778;28;20208;-68
2021/12/10 02:52:27;;;;;;;10.47;5.13;;;0.80;99.90;;;;;;5069100;28;20205;-68
2021/12/10 02:54:57;;;;;;;8.33;4.60;;;0.90;99.90;;;;;;5070385;28;20240;-69
2021/12/10 02:57:27;;;;;;;10.07;5.07;;;0.90;99.90;;;;;;5069473;28;20511;-70
2021/12/10 02:59:55;;;;;;;12.07;6.03;;;0.90;99.90;;;;;;5056722;28;20198;-69
2021/12/10 03:02:25;;;;;;;11.10;5.90;;;0.90;99.90;;;;;;5062097;28;20224;-69
2021/12/10 03:04:52;;;;;;;16.30;6.97;;;0.90;99.90;;;;;;5058700;28;20301;-68
2021/12/10 03:07:22;;;;;;;12.57;6.00;;;0.80;99.90;;;;;;5063115;28;20196;-68
2021/12/10 03:09:51;;;;;;;11.03;5.47;;;0.90;99.90;;;;;;5061644;28;20197;-68
2021/12/10 03:12:20;;;;;;;9.10;4.70;;;0.80;99.90;;;;;;5067653;28;20207;-68
2021/12/10 03:14:52;;;;;;;19.53;7.93;;;0.80;99.90;;;;;;5070130;28;20462;-70
2021/12/10 03:17:23;;;;;;;13.17;6.50;;;0.90;99.90;;;;;;5068942;28;20185;-69
2021/12/10 03:19:51;;;;;;;11.73;5.60;;;0.90;99.90;;;;;;5067649;28;20669;-68
2021/12/10 03:22:18;;;;;;;13.97;5.93;;;0.90;99.90;;;;;;5057334;28;20296;-68
2021/12/10 03:24:46;;;;;;;16.47;6.83;;;0.90;99.90;;;;;;5067799;28;20258;-68
2021/12/10 03:27:14;;;;;;;13.27;6.10;;;0.90;99.90;;;;;;5059195;28;20770;-69
2021/12/10 03:29:44;;;;;;;12.93;5.70;;;0.90;99.90;;;;;;5053902;28;20206;-69
2021/12/10 03:32:17;;;;;;;10.23;5.37;;;0.90;99.90;;;;;;5059068;28;20229;-69
2021/12/10 03:34:45;;;;;;;7.97;4.13;;;0.90;99.90;;;;;;5054464;28;20210;-69
2021/12/10 03:37:17;;;;;;;11.07;4.60;;;0.90;99.90;;;;;;5066202;28;20987;-69
2021/12/10 03:39:44;;;;;;;8.33;4.30;;;0.90;99.90;;;;;;5066535;28;20532;-69
2021/12/10 03:42:12;;;;;;;9.27;5.13;;;0.90;99.90;;;;;;5058192;28;20203;-70
2021/12/10 03:44:40;;;;;;;8.60;4.40;;;0.90;99.90;;;;;;5054729;28;20264;-69
2021/12/10 03:47:09;;;;;;;7.73;4.63;;;0.90;99.90;;;;;;5050563;28;20198;-69
2021/12/10 03:49:39;;;;;;;12.70;5.53;;;0.90;99.90;;;;;;5055504;28;20658;-69
2021/12/10 03:52:09;;;;;;;11.17;5.70;;;0.90;99.90;;;;;;5054800;28;20197;-69
2021/12/10 03:54:37;;;;;;;9.23;4.60;;;1.00;99.90;;;;;;5055363;28;20270;-69
2021/12/10 03:57:06;;;;;;;7.33;4.20;;;1.00;99.90;;;;;;5059034;28;20567;-69
2021/12/10 03:59:35;;;;;;;7.60;4.30;;;1.00;99.90;;;;;;5062212;28;20227;-69
2021/12/10 04:02:05;;;;;;;9.90;4.50;;;1.00;99.90;;;;;;5058899;28;20229;-69
2021/12/10 04:04:35;;;;;;;9.03;4.60;;;1.00;99.90;;;;;;5060187;28;20194;-69
2021/12/10 04:07:07;;;;;;;11.10;5.40;;;1.00;99.90;;;;;;5055733;28;20200;-69
2021/12/10 04:09:34;;;;;;;7.63;4.53;;;1.00;99.90;;;;;;5063869;28;20205;-69
2021/12/10 04:12:01;;;;;;;9.90;5.30;;;1.00;99.90;;;;;;5051115;28;20646;-68
2021/12/10 04:14:29;;;;;;;18.13;7.87;;;1.00;99.90;;;;;;5068830;28;20315;-69
2021/12/10 04:16:57;;;;;;;10.97;5.63;;;1.00;99.90;;;;;;5055877;28;20659;-69
2021/12/10 04:19:26;;;;;;;12.97;5.40;;;1.00;99.90;;;;;;5059260;28;20225;-68
2021/12/10 04:21:56;;;;;;;16.67;7.17;;;0.90;99.90;;;;;;5053436;28;20197;-69
2021/12/10 04:24:27;;;;;;;12.43;5.33;;;0.90;99.90;;;;;;5052526;28;20456;-69
2021/12/10 04:26:56;;;;;;;8.90;4.50;;;1.00;99.90;;;;;;5054631;28;20220;-68
2021/12/10 04:29:23;;;;;;;6.30;4.07;;;1.00;99.90;;;;;;5062196;28;20200;-68
2021/12/10 04:31:53;;;;;;;9.07;4.40;;;1.00;99.90;;;;;;5057613;28;20559;-69
2021/12/10 04:34:21;;;;;;;10.33;5.13;;;1.00;99.90;;;;;;5059620;28;20201;-68
2021/12/10 04:36:49;;;;;;;11.67;5.00;;;1.00;99.90;;;;;;5056194;28;20198;-69
2021/12/10 04:39:16;;;;;;;8.17;4.57;;;1.00;99.90;;;;;;5054887;28;20677;-68
2021/12/10 04:41:45;;;;;;;8.10;4.70;;;1.00;99.90;;;;;;5053088;28;20198;-69
2021/12/10 04:44:13;;;;;;;6.67;4.07;;;1.00;99.90;;;;;;5053276;28;20201;-68
2021/12/10 04:46:41;;;;;;;7.37;4.23;;;1.00;99.90;;;;;;5058384;28;20193;-68
2021/12/10 04:49:12;;;;;;;11.13;5.10;;;1.00;99.90;;;;;;5061401;28;20596;-68
2021/12/10 04:51:42;;;;;;;15.93;7.03;;;1.00;99.90;;;;;;5057879;28;20190;-68
2021/12/10 04:54:10;;;;;;;17.80;6.97;;;1.00;99.90;;;;;;5056949;28;20245;-69
2021/12/10 04:56:38;;;;;;;15.07;7.23;;;1.00;99.90;;;;;;5040495;28;20695;-69
2021/12/10 04:59:10;;;;;;;16.43;7.30;;;1.00;99.90;;;;;;5067361;28;20197;-70
2021/12/10 05:01:37;;;;;;;13.17;5.90;;;1.00;99.90;;;;;;5058534;28;20197;-68
2021/12/10 05:04:07;;;;;;;16.13;6.63;;;1.00;99.90;;;;;;5061369;28;20189;-69
2021/12/10 05:06:35;;;;;;;13.00;5.53;;;1.00;99.90;;;;;;5057566;28;20229;-68
2021/12/10 05:09:03;;;;;;;10.27;5.13;;;1.00;99.90;;;;;;5060767;28;20189;-68
2021/12/10 05:11:30;;;;;;;9.13;4.73;;;0.90;99.90;;;;;;5064572;28;20231;-70
2021/12/10 05:13:57;;;;;;;9.63;5.27;;;0.90;99.90;;;;;;5068638;28;20217;-68
2021/12/10 05:16:27;;;;;;;9.47;4.77;;;1.00;99.90;;;;;;5055827;28;20205;-68
2021/12/10 05:18:58;;;;;;;11.30;5.50;;;1.00;99.90;;;;;;5061508;28;20221;-68
2021/12/10 05:21:27;;;;;;;13.67;5.73;;;1.00;99.90;;;;;;5055158;28;20202;-68
2021/12/10 05:23:55;;;;;;;14.80;6.40;;;1.00;99.90;;;;;;5064139;28;20584;-69
2021/12/10 05:26:22;;;;;;;11.30;5.50;;;1.00;99.90;;;;;;5055818;28;20224;-69
2021/12/10 05:28:49;;;;;;;10.60;5.07;;;1.00;99.90;;;;;;5063193;28;20239;-67
2021/12/10 05:31:16;;;;;;;11.20;5.37;;;1.20;99.90;;;;;;5061230;28;20256;-69
2021/12/10 05:33:45;;;;;;;11.63;5.10;;;1.10;99.90;;;;;;5054138;28;20659;-69
2021/12/10 05:36:12;;;;;;;10.87;5.33;;;1.10;99.90;;;;;;5057488;28;20189;-68
2021/12/10 05:38:39;;;;;;;10.17;5.13;;;1.10;99.90;;;;;;5055381;28;20206;-69
2021/12/10 05:41:09;;;;;;;9.33;4.40;;;1.00;99.90;;;;;;5059595;28;20201;-69
2021/12/10 05:43:37;;;;;;;9.00;4.83;;;1.10;99.90;;;;;;5065626;28;20231;-69
2021/12/10 05:46:05;;;;;;;11.23;4.33;;;1.10;99.90;;;;;;5058772;28;20220;-69
2021/12/10 05:48:32;;;;;;;10.20;5.43;;;1.10;99.90;;;;;;5056554;28;20243;-69
2021/12/10 05:51:01;;;;;;;10.20;5.50;;;1.10;99.90;;;;;;5061653;28;20205;-69
2021/12/10 05:53:28;;;;;;;14.13;5.40;;;1.20;99.90;;;;;;5056765;28;20540;-69
2021/12/10 05:55:56;;;;;;;12.53;6.30;;;1.10;99.90;;;;;;5060980;28;20759;-69
2021/12/10 05:58:24;;;;;;;10.60;5.27;;;1.10;99.90;;;;;;5066295;28;20253;-68
2021/12/10 06:00:53;;;;;;;14.57;6.00;;;1.10;99.90;;;;;;5066479;28;20201;-68
2021/12/10 06:03:23;;;;;;;10.07;5.23;;;1.10;99.90;;;;;;5057320;28;20205;-68
2021/12/10 06:05:50;;;;;;;7.87;4.40;;;1.10;99.90;;;;;;5053469;28;20223;-69
2021/12/10 06:08:19;;;;;;;11.33;5.73;;;1.10;99.90;;;;;;5057146;28;20198;-70
2021/12/10 06:10:48;;;;;;;13.70;7.00;;;1.10;99.90;;;;;;5067379;28;20185;-69
2021/12/10 06:13:15;;;;;;;13.53;7.27;;;1.10;99.90;;;;;;5065538;28;20577;-69
2021/12/10 06:15:43;;;;;;;11.17;5.97;;;1.10;99.90;;;;;;5064309;28;20653;-69
2021/12/10 06:18:10;;;;;;;24.53;8.20;;;1.10;99.90;;;;;;5070249;28;20201;-69
2021/12/10 06:20:40;;;;;;;11.67;5.70;;;1.10;99.90;;;;;;5063315;28;20204;-68
2021/12/10 06:23:07;;;;;;;10.33;4.87;;;1.10;99.90;;;;;;5062789;28;20202;-69
2021/12/10 06:25:38;;;;;;;13.43;6.13;;;1.10;99.90;;;;;;5057847;28;20243;-68
2021/12/10 06:28:06;;;;;;;14.67;5.93;;;1.10;99.90;;;;;;5065536;28;20190;-69
2021/12/10 06:30:37;;;;;;;17.53;5.90;;;1.10;99.90;;;;;;5064400;28;20280;-69
2021/12/10 06:33:06;;;;;;;12.17;5.70;;;1.10;99.90;;;;;;5062546;28;20205;-69
2021/12/10 06:35:34;;;;;;;11.23;5.30;;;1.00;99.90;;;;;;5064532;28;20228;-69
2021/12/10 06:38:02;;;;;;;10.90;5.20;;;1.00;99.90;;;;;;5062998;28;20189;-70
2021/12/10 06:40:31;;;;;;;22.97;8.27;;;1.10;99.90;;;;;;5060864;28;20204;-70
2021/12/10 06:43:01;;;;;;;17.77;7.60;;;1.10;99.90;;;;;;5058970;28;20324;-68
2021/12/10 06:45:29;;;;;;;15.00;5.97;;;1.10;99.90;;;;;;5064087;28;20555;-68
2021/12/10 06:47:58;;;;;;;27.67;7.60;;;1.10;99.90;;;;;;5068551;28;20231;-68
2021/12/10 06:50:28;;;;;;;15.87;6.97;;;1.10;99.90;;;;;;5064760;28;20232;-68
2021/12/10 06:52:55;;;;;;;11.50;5.93;;;1.20;99.90;;;;;;5067305;28;20680;-68
2021/12/10 06:55:22;;;;;;;20.27;7.73;;;1.20;99.90;;;;;;5065346;28;20213;-69
2021/12/10 06:57:50;;;;;;;11.67;6.23;;;1.20;99.90;;;;;;5070437;28;20275;-69
2021/12/10 07:00:23;;;;;;;9.47;4.87;;;1.20;99.90;;;;;;5064077;28;20198;-69
2021/12/10 07:02:51;;;;;;;8.13;4.87;;;1.20;99.90;;;;;;5058764;28;20197;-69
2021/12/10 07:05:18;;;;;;;10.63;4.57;;;1.20;99.90;;;;;;5048832;28;20712;-69
2021/12/10 07:07:47;;;;;;;7.70;4.33;;;1.20;99.90;;;;;;5047673;28;20220;-69
2021/12/10 07:10:16;;;;;;;9.00;4.80;;;1.20;99.90;;;;;;5066397;28;20569;-69
2021/12/10 07:12:44;;;;;;;7.83;4.37;;;1.30;99.90;;;;;;5068079;28;20209;-70
2021/12/10 07:15:14;;;;;;;10.13;5.23;;;1.30;99.90;;;;;;5060104;28;20213;-69
2021/12/10 07:17:46;;;;;;;11.00;4.93;;;1.20;99.90;;;;;;5051447;28;20517;-70
2021/12/10 07:20:15;;;;;;;9.70;4.90;;;1.20;99.90;;;;;;5069327;28;20249;-69
2021/12/10 07:22:42;;;;;;;9.83;4.80;;;1.20;99.90;;;;;;5065412;28;20216;-69
2021/12/10 07:25:10;;;;;;;10.23;4.87;;;1.20;99.90;;;;;;5051749;28;20205;-69
2021/12/10 07:27:38;;;;;;;6.57;3.97;;;1.20;99.90;;;;;;5065212;28;20224;-68
2021/12/10 07:30:07;;;;;;;8.33;4.20;;;1.20;99.90;;;;;;5052159;28;20194;-68
2021/12/10 07:32:37;;;;;;;4.37;3.30;;;1.30;99.90;;;;;;5061424;28;20212;-69
2021/12/10 07:35:08;;;;;;;9.20;3.83;;;1.30;99.90;;;;;;5052135;28;20275;-69
2021/12/10 07:37:36;;;;;;;6.60;3.80;;;1.30;99.90;;;;;;5062512;28;20204;-70
2021/12/10 07:40:05;;;;;;;9.17;4.50;;;1.40;99.90;;;;;;5053174;28;20202;-69
2021/12/10 07:42:32;;;;;;;10.57;4.20;;;1.40;99.90;;;;;;5051275;28;20619;-70
2021/12/10 07:44:59;;;;;;;11.03;4.37;;;1.40;99.90;;;;;;5051380;28;20193;-69
2021/12/10 07:47:33;;;;;;;8.17;4.20;;;1.40;99.90;;;;;;5054875;28;20193;-69
2021/12/10 07:50:00;;;;;;;14.53;5.40;;;1.40;99.90;;;;;;5053872;28;20193;-69
2021/12/10 07:52:33;;;;;;;12.63;5.33;;;1.40;99.90;;;;;;5058490;28;20231;-69
2021/12/10 07:55:01;;;;;;;18.93;6.63;;;1.40;99.90;;;;;;5068054;28;20266;-69
2021/12/10 07:57:29;;;;;;;12.73;6.20;;;1.40;99.90;;;;;;5055910;28;20247;-69
2021/12/10 07:59:56;;;;;;;17.57;6.83;;;1.50;99.90;;;;;;5058042;28;20268;-69
2021/12/10 08:02:24;;;;;;;17.93;6.07;;;1.50;99.90;;;;;;5042245;28;20213;-70
2021/12/10 08:04:51;;;;;;;15.03;6.60;;;1.50;99.90;;;;;;5065652;28;20220;-70
2021/12/10 08:07:18;;;;;;;16.20;5.57;;;1.40;99.90;;;;;;5058461;28;20193;-69
2021/12/10 08:09:47;;;;;;;19.63;6.70;;;1.40;99.90;;;;;;5062453;28;20281;-69
2021/12/10 08:12:14;;;;;;;17.77;7.17;;;1.40;99.90;;;;;;5053651;28;20226;-69
2021/12/10 08:14:42;;;;;;;10.43;5.50;;;1.40;99.90;;;;;;5065947;28;20265;-69
2021/12/10 08:17:10;;;;;;;13.90;5.53;;;1.40;99.90;;;;;;5069610;28;20243;-69
2021/12/10 08:19:37;;;;;;;10.47;5.30;;;1.40;99.90;;;;;;5064942;28;20197;-69
2021/12/10 08:22:05;;;;;;;13.03;5.50;;;1.40;99.90;;;;;;5048772;28;20263;-69
2021/12/10 08:24:32;;;;;;;11.17;5.20;;;1.40;99.90;;;;;;5053711;28;20203;-70
2021/12/10 08:27:01;;;;;;;8.23;5.10;;;1.40;99.90;;;;;;5059437;28;20205;-69
2021/12/10 08:29:28;;;;;;;22.13;6.50;;;1.50;99.90;;;;;;5058752;28;20276;-69
2021/12/10 08:31:55;;;;;;;24.17;9.47;;;1.50;99.90;;;;;;5051367;28;20229;-69
2021/12/10 08:34:23;;;;;;;14.83;7.37;;;1.50;99.90;;;;;;5053467;28;20296;-70
2021/12/10 08:36:50;;;;;;;19.60;7.83;;;1.50;99.90;;;;;;5047306;28;20563;-69
2021/12/10 08:39:18;;;;;;;17.90;7.00;;;1.50;99.90;;;;;;5053916;28;20255;-70
2021/12/10 08:41:45;;;;;;;19.80;7.20;;;1.50;99.90;;;;;;5051271;28;20955;-70
2021/12/10 08:44:15;;;;;;;17.57;6.93;;;1.60;99.90;;;;;;5064727;28;20201;-69
2021/12/10 08:46:44;;;;;;;18.03;7.03;;;1.50;99.90;;;;;;5058300;28;20389;-68
2021/12/10 08:49:13;;;;;;;18.00;6.67;;;1.50;99.90;;;;;;5053698;28;20670;-68
2021/12/10 08:51:43;;;;;;;15.17;6.00;;;1.50;99.90;;;;;;5050147;28;20197;-68
2021/12/10 08:54:12;;;;;;;16.87;5.77;;;1.50;99.90;;;;;;5062441;28;20204;-69
2021/12/10 08:56:41;;;;;;;18.87;7.40;;;1.50;99.90;;;;;;5068426;28;20315;-69
2021/12/10 08:59:10;;;;;;;19.93;7.53;;;1.60;99.90;;;;;;5067255;28;20205;-69
2021/12/10 09:01:42;;;;;;;14.57;6.33;;;1.60;99.90;;;;;;5058970;28;20213;-68
2021/12/10 09:04:11;;;;;;;16.90;6.07;;;1.60;99.90;;;;;;5063366;28;20593;-69
2021/12/10 09:06:41;;;;;;;15.20;6.30;;;1.60;99.90;;;;;;5069391;28;20220;-68
2021/12/10 09:09:10;;;;;;;11.87;5.77;;;1.60;99.90;;;;;;5059833;28;20197;-69
2021/12/10 09:11:38;;;;;;;12.23;5.20;;;1.70;99.90;;;;;;5067303;28;20753;-68
2021/12/10 09:14:07;;;;;;;9.97;5.13;;;1.70;99.90;;;;;;5070909;28;20273;-69
2021/12/10 09:16:36;;;;;;;12.73;6.40;;;1.70;99.90;;;;;;5057854;28;20205;-68
2021/12/10 09:19:12;;;;;;;10.60;5.23;;;1.80;99.90;;;;;;5059391;28;20645;-68
2021/12/10 09:21:40;;;;;;;15.17;5.47;;;1.80;99.90;;;;;;5042023;28;20208;-69
2021/12/10 09:24:09;;;;;;;9.47;5.30;;;1.80;99.90;;;;;;5058516;28;20205;-69
2021/12/10 09:26:41;;;;;;;12.00;6.43;;;1.90;99.90;;;;;;5051617;28;20213;-69
2021/12/10 09:29:11;;;;;;;14.43;7.27;;;1.80;99.90;;;;;;5068078;28;20246;-69
2021/12/10 09:31:42;;;;;;;14.07;6.17;;;1.90;99.90;;;;;;5054317;28;20319;-69
2021/12/10 09:34:14;;;;;;;15.53;7.03;;;1.80;99.90;;;;;;5063286;28;20193;-69
2021/12/10 09:36:44;;;;;;;11.57;6.27;;;1.90;99.90;;;;;;5054765;28;20602;-68
2021/12/10 09:39:13;;;;;;;10.60;6.03;;;1.80;99.90;;;;;;5066052;28;20205;-70
2021/12/10 09:41:40;;;;;;;9.73;5.27;;;1.80;99.90;;;;;;5067711;28;20201;-69
2021/12/10 09:44:08;;;;;;;8.80;4.90;;;1.80;99.90;;;;;;5055810;28;20224;-69
2021/12/10 09:46:36;;;;;;;11.20;5.70;;;1.80;99.90;;;;;;5038196;28;20278;-69
2021/12/10 09:49:04;;;;;;;10.73;6.27;;;1.80;99.90;;;;;;5057737;28;20221;-69
2021/12/10 09:51:38;;;;;;;11.83;5.77;;;1.80;99.90;;;;;;5062403;28;20273;-69
2021/12/10 09:54:11;;;;;;;8.57;4.70;;;1.90;99.90;;;;;;5060003;28;20189;-69
2021/12/10 09:56:39;;;;;;;9.10;4.77;;;2.00;99.90;;;;;;5048480;28;20248;-68
2021/12/10 09:59:06;;;;;;;9.47;4.60;;;2.00;99.90;;;;;;5047328;28;20619;-69
2021/12/10 10:01:38;;;;;;;14.37;7.23;;;2.10;99.90;;;;;;5065368;28;20207;-68
2021/12/10 10:04:06;;;;;;;11.70;5.83;;;2.10;99.90;;;;;;5060834;28;20204;-69
2021/12/10 10:06:39;;;;;;;13.67;6.20;;;2.10;99.90;;;;;;5058704;28;20201;-68
2021/12/10 10:09:10;;;;;;;8.30;5.30;;;2.10;99.90;;;;;;5061729;28;20625;-68
2021/12/10 10:11:37;;;;;;;9.33;5.17;;;2.10;99.90;;;;;;5063750;28;20191;-68
2021/12/10 10:14:06;;;;;;;9.43;5.47;;;2.10;99.90;;;;;;5070954;28;20657;-69
2021/12/10 10:16:35;;;;;;;11.30;5.40;;;2.10;99.90;;;;;;5056723;28;20221;-68
2021/12/10 10:19:03;;;;;;;10.10;5.57;;;2.10;99.90;;;;;;5064269;28;20208;-68
2021/12/10 10:21:33;;;;;;;15.33;7.23;;;2.10;99.90;;;;;;5066098;28;20228;-70
2021/12/10 10:24:02;;;;;;;11.93;6.17;;;2.10;99.90;;;;;;5056834;28;20685;-68
2021/12/10 10:26:33;;;;;;;10.00;6.27;;;2.10;99.90;;;;;;5064289;28;20258;-68
2021/12/10 10:29:02;;;;;;;8.50;4.83;;;2.10;99.90;;;;;;5051902;28;20193;-69
2021/12/10 10:31:29;;;;;;;7.37;4.53;;;2.20;99.90;;;;;;5063601;28;20248;-68
2021/12/10 10:34:03;;;;;;;10.93;4.37;;;2.30;99.90;;;;;;5055447;28;20202;-70
2021/12/10 10:36:34;;;;;;;17.07;4.07;;;2.40;99.90;;;;;;5035174;28;20308;-69
2021/12/10 10:39:09;;;;;;;15.73;4.37;;;2.50;99.90;;;;;;5057564;28;20239;-69
2021/12/10 10:41:38;;;;;;;14.33;4.97;;;2.50;99.90;;;;;;5044607;28;20258;-69
2021/12/10 10:44:06;;;;;;;8.87;5.07;;;2.50;99.90;;;;;;5062941;28;20244;-68
2021/12/10 10:46:34;;;;;;;12.03;5.93;;;2.40;99.90;;;;;;5058193;28;20204;-69
2021/12/10 10:49:01;;;;;;;11.57;5.80;;;2.40;99.90;;;;;;5064939;28;20310;-69
2021/12/10 10:51:32;;;;;;;11.87;6.40;;;2.40;99.90;;;;;;5067139;28;20631;-69
2021/12/10 10:54:07;;;;;;;9.77;6.03;;;2.40;99.90;;;;;;5061991;28;20625;-69
2021/12/10 10:56:37;;;;;;;7.60;4.87;;;2.40;99.90;;;;;;5065208;28;20204;-69
2021/12/10 10:59:13;;;;;;;12.50;6.30;;;2.40;99.90;;;;;;5065279;28;20535;-69
2021/12/10 11:01:48;;;;;;;12.33;6.50;;;2.40;99.90;;;;;;5060422;28;20196;-69
2021/12/10 11:04:26;;;;;;;12.93;6.10;;;2.40;99.90;;;;;;5062814;28;20197;-69
2021/12/10 11:06:56;;;;;;;12.07;6.30;;;2.40;99.90;;;;;;5057443;28;20239;-69
2021/12/10 11:09:27;;;;;;;11.00;6.50;;;2.40;99.90;;;;;;5061278;28;20201;-69
2021/12/10 11:11:59;;;;;;;10.50;5.47;;;2.40;99.90;;;;;;5051627;28;20493;-69
2021/12/10 11:14:29;;;;;;;11.73;5.67;;;2.40;99.90;;;;;;5060681;28;20193;-68
2021/12/10 11:17:06;;;;;;;9.87;5.60;;;2.40;99.90;;;;;;5056702;28;20716;-68
2021/12/10 11:19:33;;;;;;;13.77;7.10;;;2.40;99.90;;;;;;5051789;28;20582;-68
2021/12/10 11:22:03;;;;;;;9.57;5.70;;;2.50;99.90;;;;;;5051660;28;20736;-69
2021/12/10 11:24:38;;;;;;;13.13;6.57;;;2.40;99.90;;;;;;5054804;28;20612;-68
2021/12/10 11:27:09;;;;;;;10.80;5.63;;;2.40;99.90;;;;;;5061823;28;20615;-69
2021/12/10 11:29:43;;;;;;;9.77;5.57;;;2.40;99.90;;;;;;5066223;28;20314;-69
2021/12/10 11:32:14;;;;;;;9.97;5.97;;;2.40;99.90;;;;;;5060484;28;20775;-68
2021/12/10 11:34:53;;;;;;;11.40;6.37;;;2.40;99.90;;;;;;5053216;28;20605;-69
2021/12/10 11:37:44;;;;;;;15.77;7.07;;;2.40;99.90;;;;;;5060236;28;20217;-68
2021/12/10 11:40:38;;;;;;;11.03;6.37;;;2.40;99.90;;;;;;5060747;28;20192;-69
2021/12/10 11:43:19;;;;;;;10.93;5.50;;;2.40;99.90;;;;;;5055177;28;20197;-69
2021/12/10 11:46:03;;;;;;;14.90;6.87;;;2.40;99.90;;;;;;5060192;28;20189;-69
2021/12/10 11:48:32;;;;;;;11.17;6.10;;;2.40;99.90;;;;;;5066455;28;20235;-68
2021/12/10 11:51:05;;;;;;;7.10;5.10;;;2.40;99.90;;;;;;5065567;28;20193;-68
2021/12/10 11:53:40;;;;;;;11.23;4.80;;;2.40;99.90;;;;;;5052570;28;20303;-68
2021/12/10 11:56:11;;;;;;;10.73;5.37;;;2.50;99.90;;;;;;5057446;28;20197;-68
2021/12/10 11:58:38;;;;;;;6.47;4.60;;;2.50;99.90;;;;;;5063242;28;20694;-69
2021/12/10 12:01:14;;;;;;;12.57;5.40;;;2.60;99.90;;;;;;5061414;28;20193;-68
2021/12/10 12:03:41;;;;;;;12.33;6.30;;;2.50;99.90;;;;;;5044686;28;20208;-68
2021/12/10 12:06:08;;;;;;;9.67;5.93;;;2.60;99.90;;;;;;5045365;28;20339;-68
2021/12/10 12:08:39;;;;;;;8.03;5.33;;;2.60;99.90;;;;;;5059708;28;20223;-69
2021/12/10 12:11:09;;;;;;;13.70;7.23;;;2.60;99.90;;;;;;5065267;28;20647;-68
2021/12/10 12:13:40;;;;;;;13.00;6.03;;;2.60;99.90;;;;;;5068544;28;20283;-69
2021/12/10 12:16:13;;;;;;;10.30;5.63;;;2.60;99.90;;;;;;5055050;28;20284;-69
2021/12/10 12:18:43;;;;;;;7.77;4.73;;;2.60;99.90;;;;;;5068833;28;20200;-69
2021/12/10 12:27:13;;;;;;;11.30;5.90;;;2.70;99.90;;;;;;5052697;28;20288;-68
2021/12/10 12:29:43;;;;;;;8.87;4.70;;;2.70;99.90;;;;;;5050433;28;20198;-69
2021/12/10 12:32:22;;;;;;;10.23;5.50;;;2.70;99.90;;;;;;5050122;28;20226;-68
2021/12/10 12:34:50;;;;;;;16.57;8.33;;;2.70;99.90;;;;;;5058370;28;20600;-68
2021/12/10 12:37:19;;;;;;;16.27;7.87;;;2.70;99.90;;;;;;5057536;28;20233;-68
2021/12/10 12:39:49;;;;;;;12.43;6.73;;;2.70;99.90;;;;;;5034319;28;20201;-69
2021/12/10 12:42:25;;;;;;;13.63;6.90;;;2.70;99.90;;;;;;5056720;28;20562;-68
2021/12/10 12:44:55;;;;;;;15.13;8.30;;;2.80;99.90;;;;;;5057310;28;20283;-69
2021/12/10 12:47:26;;;;;;;11.77;7.50;;;2.80;99.90;;;;;;5063850;28;20197;-69
2021/12/10 12:49:59;;;;;;;14.73;6.67;;;2.80;99.90;;;;;;5054095;28;20201;-69
2021/12/10 12:52:31;;;;;;;14.10;7.10;;;2.80;99.90;;;;;;5056514;28;20689;-69
2021/12/10 12:55:22;;;;;;;16.10;7.77;;;2.90;99.90;;;;;;5054835;28;20194;-69
2021/12/10 12:57:56;;;;;;;12.00;6.20;;;2.80;99.90;;;;;;5058825;28;20228;-69
2021/12/10 13:00:31;;;;;;;17.80;7.57;;;2.90;99.90;;;;;;5056491;28;21224;-68
2021/12/10 13:03:05;;;;;;;14.57;7.47;;;2.80;99.90;;;;;;5055339;28;20197;-69
2021/12/10 13:05:41;;;;;;;9.87;5.63;;;2.90;99.90;;;;;;5058410;28;20200;-68
2021/12/10 13:08:10;;;;;;;14.43;7.17;;;2.80;99.90;;;;;;5056774;28;20200;-69
2021/12/10 13:10:40;;;;;;;16.53;8.23;;;2.80;99.90;;;;;;5063727;28;20199;-68
2021/12/10 13:13:15;;;;;;;12.33;6.67;;;2.80;99.90;;;;;;5046073;28;20203;-69
2021/12/10 13:15:50;;;;;;;12.80;6.63;;;2.80;99.90;;;;;;5068359;28;20237;-69
2021/12/10 13:18:18;;;;;;;17.63;8.77;;;2.80;99.90;;;;;;5049428;28;20255;-68